Terminal Aerodrome Forecast
Issued by NWS

Home | Current Version | Previous Version | Graphics & Text | Print | Product List | Glossary On
Versions: 1 2 3 4 5 6 7 8 9 10 11 12 13 14 15 16 17 18 19 20 21 22 23
000
FTUS43 KABR 280522
TAFATY
TAF
KATY 280522Z 2806/2906 VRB03KT P6SM BKN150
      TEMPO 2808/2810 5SM BR
     FM281000 VRB03KT 2SM BR SKC
      TEMPO 2810/2812 1/2SM FG BKN002
     FM281400 18006KT P6SM SKC=

USA.gov is the U.S. government's official web portal to all federal, state and local government web resources and services.